sensor_id;sensor_type;location;lat;lon;timestamp;pressure;altitude;pressure_sealevel;temperature;humidity
37486;BME280;23341;50.296;18.960;2023-03-01T00:04:54;46026.31;;;-144.43;87.50
37486;BME280;23341;50.296;18.960;2023-03-01T00:09:58;46026.31;;;-144.43;87.93
37486;BME280;23341;50.296;18.960;2023-03-01T00:15:03;46064.25;;;-144.43;85.92
37486;BME280;23341;50.296;18.960;2023-03-01T00:20:10;46082.22;;;-144.43;85.92
37486;BME280;23341;50.296;18.960;2023-03-01T00:25:15;46120.16;;;-144.43;85.09
37486;BME280;23341;50.296;18.960;2023-03-01T00:30:19;46110.19;;;-144.43;85.05
37486;BME280;23341;50.296;18.960;2023-03-01T00:35:25;46082.22;;;-144.43;85.57
37486;BME280;23341;50.296;18.960;2023-03-01T00:40:31;46076.25;;;-144.43;85.59
37486;BME280;23341;50.296;18.960;2023-03-01T00:45:37;46084.22;;;-144.43;85.89
37486;BME280;23341;50.296;18.960;2023-03-01T00:50:43;46102.19;;;-144.43;84.92
37486;BME280;23341;50.296;18.960;2023-03-01T00:55:47;46098.19;;;-144.43;85.85
37486;BME280;23341;50.296;18.960;2023-03-01T01:00:51;46110.19;;;-144.43;86.08
37486;BME280;23341;50.296;18.960;2023-03-01T01:05:57;46086.22;;;-144.43;86.13
37486;BME280;23341;50.296;18.960;2023-03-01T01:11:02;46108.19;;;-144.43;86.06
37486;BME280;23341;50.296;18.960;2023-03-01T01:16:07;46076.25;;;-144.43;87.12
37486;BME280;23341;50.296;18.960;2023-03-01T01:21:14;46084.22;;;-144.43;87.37
37486;BME280;23341;50.296;18.960;2023-03-01T01:26:21;46082.22;;;-144.43;87.72
37486;BME280;23341;50.296;18.960;2023-03-01T01:31:27;46040.28;;;-144.43;87.79
37486;BME280;23341;50.296;18.960;2023-03-01T01:36:34;46070.25;;;-144.43;88.27
37486;BME280;23341;50.296;18.960;2023-03-01T01:41:40;46022.31;;;-144.43;89.35
37486;BME280;23341;50.296;18.960;2023-03-01T01:46:47;46020.31;;;-144.43;89.33
37486;BME280;23341;50.296;18.960;2023-03-01T01:51:59;46034.31;;;-144.43;89.75
37486;BME280;23341;50.296;18.960;2023-03-01T01:57:09;45972.41;;;-144.43;89.67
37486;BME280;23341;50.296;18.960;2023-03-01T02:02:16;45990.38;;;-144.43;89.95
37486;BME280;23341;50.296;18.960;2023-03-01T02:07:23;45964.41;;;-144.43;90.09
37486;BME280;23341;50.296;18.960;2023-03-01T02:12:29;45966.41;;;-144.43;90.73
37486;BME280;23341;50.296;18.960;2023-03-01T02:17:33;45948.44;;;-144.43;90.51
37486;BME280;23341;50.296;18.960;2023-03-01T02:22:43;45968.41;;;-144.43;90.51
37486;BME280;23341;50.296;18.960;2023-03-01T02:27:54;45922.47;;;-144.43;90.65
37486;BME280;23341;50.296;18.960;2023-03-01T02:33:04;45908.50;;;-144.43;91.89
37486;BME280;23341;50.296;18.960;2023-03-01T02:38:09;45890.53;;;-144.43;92.15
37486;BME280;23341;50.296;18.960;2023-03-01T02:43:14;45860.56;;;-144.43;92.27
37486;BME280;23341;50.296;18.960;2023-03-01T02:48:20;45884.53;;;-144.43;92.05
37486;BME280;23341;50.296;18.960;2023-03-01T02:53:35;45876.53;;;-144.43;92.15
37486;BME280;23341;50.296;18.960;2023-03-01T02:58:44;45876.53;;;-144.43;92.32
37486;BME280;23341;50.296;18.960;2023-03-01T03:03:52;45864.56;;;-144.43;92.88
37486;BME280;23341;50.296;18.960;2023-03-01T03:08:57;45784.69;;;-144.43;93.21
37486;BME280;23341;50.296;18.960;2023-03-01T03:14:01;45842.59;;;-144.43;93.18
37486;BME280;23341;50.296;18.960;2023-03-01T03:19:07;45762.72;;;-144.43;93.59
37486;BME280;23341;50.296;18.960;2023-03-01T03:24:12;45808.66;;;-144.43;94.08
37486;BME280;23341;50.296;18.960;2023-03-01T03:29:16;45796.66;;;-144.43;94.19
37486;BME280;23341;50.296;18.960;2023-03-01T03:34:22;45728.78;;;-144.43;94.41
37486;BME280;23341;50.296;18.960;2023-03-01T03:39:26;45716.81;;;-144.43;94.46
37486;BME280;23341;50.296;18.960;2023-03-01T03:44:31;45738.75;;;-144.43;94.48
37486;BME280;23341;50.296;18.960;2023-03-01T03:49:37;45726.78;;;-144.43;94.62
37486;BME280;23341;50.296;18.960;2023-03-01T03:54:41;45744.75;;;-144.43;94.05
37486;BME280;23341;50.296;18.960;2023-03-01T03:59:45;45712.81;;;-144.43;94.19
37486;BME280;23341;50.296;18.960;2023-03-01T04:04:51;45722.78;;;-144.43;94.84
37486;BME280;23341;50.296;18.960;2023-03-01T04:09:55;45682.84;;;-144.43;94.61
37486;BME280;23341;50.296;18.960;2023-03-01T04:15:00;45698.81;;;-144.43;94.86
37486;BME280;23341;50.296;18.960;2023-03-01T04:20:09;45684.84;;;-144.43;94.97
37486;BME280;23341;50.296;18.960;2023-03-01T04:25:14;45666.88;;;-144.43;95.03
37486;BME280;23341;50.296;18.960;2023-03-01T04:30:19;45672.88;;;-144.43;94.81
37486;BME280;23341;50.296;18.960;2023-03-01T04:35:24;45668.88;;;-144.43;94.34
37486;BME280;23341;50.296;18.960;2023-03-01T04:40:29;45674.88;;;-144.43;94.02
37486;BME280;23341;50.296;18.960;2023-03-01T04:45:33;45714.81;;;-144.43;94.35
37486;BME280;23341;50.296;18.960;2023-03-01T04:50:39;45688.84;;;-144.43;94.38
37486;BME280;23341;50.296;18.960;2023-03-01T04:55:44;45650.91;;;-144.43;94.54
37486;BME280;23341;50.296;18.960;2023-03-01T05:00:48;45646.91;;;-144.43;94.76
37486;BME280;23341;50.296;18.960;2023-03-01T05:05:53;45638.94;;;-144.43;94.33
37486;BME280;23341;50.296;18.960;2023-03-01T05:10:58;45618.97;;;-144.43;94.79
37486;BME280;23341;50.296;18.960;2023-03-01T05:16:04;45624.94;;;-144.43;94.52
37486;BME280;23341;50.296;18.960;2023-03-01T05:21:14;45656.91;;;-144.43;94.38
37486;BME280;23341;50.296;18.960;2023-03-01T05:26:20;45602.97;;;-144.43;94.53
37486;BME280;23341;50.296;18.960;2023-03-01T05:31:31;45569.03;;;-144.43;94.69
37486;BME280;23341;50.296;18.960;2023-03-01T05:36:37;45547.06;;;-144.43;94.60
37486;BME280;23341;50.296;18.960;2023-03-01T05:41:41;45581.03;;;-144.43;94.25
37486;BME280;23341;50.296;18.960;2023-03-01T05:46:46;45539.09;;;-144.43;95.44
37486;BME280;23341;50.296;18.960;2023-03-01T05:51:53;45515.13;;;-144.43;94.96
37486;BME280;23341;50.296;18.960;2023-03-01T05:56:57;45515.13;;;-144.43;94.83
37486;BME280;23341;50.296;18.960;2023-03-01T06:02:01;45475.19;;;-144.43;95.40
37486;BME280;23341;50.296;18.960;2023-03-01T06:07:07;45483.19;;;-144.43;94.31
37486;BME280;23341;50.296;18.960;2023-03-01T06:12:11;45475.19;;;-144.43;94.06
37486;BME280;23341;50.296;18.960;2023-03-01T06:17:15;45437.25;;;-144.43;93.83
37486;BME280;23341;50.296;18.960;2023-03-01T06:22:21;45471.19;;;-144.43;86.12
37486;BME280;23341;50.296;18.960;2023-03-01T06:27:26;45585.00;;;-144.43;74.52
37486;BME280;23341;50.296;18.960;2023-03-01T06:32:30;45716.81;;;-144.43;67.59
37486;BME280;23341;50.296;18.960;2023-03-01T06:37:36;45774.72;;;-144.43;66.51
37486;BME280;23341;50.296;18.960;2023-03-01T06:42:43;45792.69;;;-144.43;64.17
37486;BME280;23341;50.296;18.960;2023-03-01T06:47:48;45844.59;;;-144.43;61.80
37486;BME280;23341;50.296;18.960;2023-03-01T06:52:57;45790.69;;;-144.43;60.35
37486;BME280;23341;50.296;18.960;2023-03-01T06:58:01;45812.66;;;-144.43;55.32
37486;BME280;23341;50.296;18.960;2023-03-01T07:03:06;45764.72;;;-144.43;48.67
37486;BME280;23341;50.296;18.960;2023-03-01T07:08:11;45746.75;;;-144.43;41.63
37486;BME280;23341;50.296;18.960;2023-03-01T07:13:16;45880.53;;;-144.43;35.03
37486;BME280;23341;50.296;18.960;2023-03-01T07:18:20;46014.34;;;-144.43;32.03
37486;BME280;23341;50.296;18.960;2023-03-01T07:23:26;46413.75;;;-144.43;28.58
37486;BME280;23341;50.296;18.960;2023-03-01T07:28:30;46741.28;;;-144.43;28.46
37486;BME280;23341;50.296;18.960;2023-03-01T07:33:38;46913.06;;;-144.43;28.83
37486;BME280;23341;50.296;18.960;2023-03-01T07:38:44;47102.81;;;-144.43;30.57
37486;BME280;23341;50.296;18.960;2023-03-01T07:43:48;47092.81;;;-144.43;31.17
37486;BME280;23341;50.296;18.960;2023-03-01T07:48:52;47124.78;;;-144.43;31.29
37486;BME280;23341;50.296;18.960;2023-03-01T07:53:58;47136.78;;;-144.43;30.92
37486;BME280;23341;50.296;18.960;2023-03-01T07:59:03;47104.81;;;-144.43;31.01
37486;BME280;23341;50.296;18.960;2023-03-01T08:04:07;47202.69;;;-144.43;32.06
37486;BME280;23341;50.296;18.960;2023-03-01T08:09:13;47228.66;;;-144.43;33.11
37486;BME280;23341;50.296;18.960;2023-03-01T08:14:17;47250.63;;;-144.43;33.86
37486;BME280;23341;50.296;18.960;2023-03-01T08:19:21;47166.72;;;-144.43;34.66
37486;BME280;23341;50.296;18.960;2023-03-01T08:24:27;47238.66;;;-144.43;34.04
37486;BME280;23341;50.296;18.960;2023-03-01T08:29:32;47220.66;;;-144.43;35.44
37486;BME280;23341;50.296;18.960;2023-03-01T08:34:37;47272.59;;;-144.43;36.53
37486;BME280;23341;50.296;18.960;2023-03-01T08:39:44;47272.59;;;-144.43;36.21
37486;BME280;23341;50.296;18.960;2023-03-01T08:44:49;47370.50;;;-144.43;36.83
37486;BME280;23341;50.296;18.960;2023-03-01T08:49:53;47376.47;;;-144.43;36.90
37486;BME280;23341;50.296;18.960;2023-03-01T08:54:59;47378.47;;;-144.43;38.47
37486;BME280;23341;50.296;18.960;2023-03-01T09:00:07;47384.47;;;-144.43;38.18
37486;BME280;23341;50.296;18.960;2023-03-01T09:05:12;47348.50;;;-144.43;39.04
37486;BME280;23341;50.296;18.960;2023-03-01T09:10:18;47368.50;;;-144.43;39.42
37486;BME280;23341;50.296;18.960;2023-03-01T09:15:22;47376.47;;;-144.43;38.75
37486;BME280;23341;50.296;18.960;2023-03-01T09:20:27;47384.47;;;-144.43;38.72
37486;BME280;23341;50.296;18.960;2023-03-01T09:25:33;47360.50;;;-144.43;39.36
37486;BME280;23341;50.296;18.960;2023-03-01T09:30:38;47408.44;;;-144.43;38.62
37486;BME280;23341;50.296;18.960;2023-03-01T09:35:43;47360.50;;;-144.43;40.25
37486;BME280;23341;50.296;18.960;2023-03-01T09:40:51;47338.53;;;-144.43;38.69
37486;BME280;23341;50.296;18.960;2023-03-01T09:45:55;47316.56;;;-144.43;36.85
37486;BME280;23341;50.296;18.960;2023-03-01T09:51:07;47394.47;;;-144.43;37.15
37486;BME280;23341;50.296;18.960;2023-03-01T09:56:21;47372.47;;;-144.43;39.03
37486;BME280;23341;50.296;18.960;2023-03-01T10:01:31;47368.50;;;-144.43;38.94
37486;BME280;23341;50.296;18.960;2023-03-01T10:06:38;47364.50;;;-144.43;38.95
37486;BME280;23341;50.296;18.960;2023-03-01T10:11:48;47356.50;;;-144.43;38.25
37486;BME280;23341;50.296;18.960;2023-03-01T10:16:56;47280.59;;;-144.43;38.41
37486;BME280;23341;50.296;18.960;2023-03-01T10:22:12;47300.56;;;-144.43;38.50
37486;BME280;23341;50.296;18.960;2023-03-01T10:27:22;47250.63;;;-144.43;38.29
37486;BME280;23341;50.296;18.960;2023-03-01T10:32:27;47256.63;;;-144.43;38.84
37486;BME280;23341;50.296;18.960;2023-03-01T10:37:32;47256.63;;;-144.43;38.91
37486;BME280;23341;50.296;18.960;2023-03-01T10:42:43;47278.59;;;-144.43;38.84
37486;BME280;23341;50.296;18.960;2023-03-01T10:48:03;47272.59;;;-144.43;39.48
37486;BME280;23341;50.296;18.960;2023-03-01T10:53:21;47220.66;;;-144.43;39.25
37486;BME280;23341;50.296;18.960;2023-03-01T10:58:30;47170.72;;;-144.43;39.42
37486;BME280;23341;50.296;18.960;2023-03-01T11:03:36;47220.66;;;-144.43;38.09
37486;BME280;23341;50.296;18.960;2023-03-01T11:08:42;47246.63;;;-144.43;37.58
37486;BME280;23341;50.296;18.960;2023-03-01T11:13:54;47260.63;;;-144.43;36.28
37486;BME280;23341;50.296;18.960;2023-03-01T11:19:03;47252.63;;;-144.43;36.80
37486;BME280;23341;50.296;18.960;2023-03-01T11:24:12;47246.63;;;-144.43;36.45
37486;BME280;23341;50.296;18.960;2023-03-01T11:29:27;47212.69;;;-144.43;38.45
37486;BME280;23341;50.296;18.960;2023-03-01T11:34:54;47236.66;;;-144.43;37.00
37486;BME280;23341;50.296;18.960;2023-03-01T11:40:11;47198.69;;;-144.43;37.60
37486;BME280;23341;50.296;18.960;2023-03-01T11:45:19;47288.59;;;-144.43;36.44
37486;BME280;23341;50.296;18.960;2023-03-01T11:50:31;47284.59;;;-144.43;35.74
37486;BME280;23341;50.296;18.960;2023-03-01T11:55:52;47248.63;;;-144.43;37.79
37486;BME280;23341;50.296;18.960;2023-03-01T12:01:11;47338.53;;;-144.43;35.48
37486;BME280;23341;50.296;18.960;2023-03-01T12:12:11;47278.59;;;-144.43;36.68
37486;BME280;23341;50.296;18.960;2023-03-01T12:17:36;47278.59;;;-144.43;35.01
37486;BME280;23341;50.296;18.960;2023-03-01T12:22:57;47316.56;;;-144.43;34.58
37486;BME280;23341;50.296;18.960;2023-03-01T12:28:35;47332.53;;;-144.43;33.14
37486;BME280;23341;50.296;18.960;2023-03-01T12:33:52;47310.56;;;-144.43;34.13
37486;BME280;23341;50.296;18.960;2023-03-01T12:39:08;47298.56;;;-144.43;34.26
37486;BME280;23341;50.296;18.960;2023-03-01T12:44:28;47370.50;;;-144.43;36.00
37486;BME280;23341;50.296;18.960;2023-03-01T12:49:40;47306.56;;;-144.43;36.71
37486;BME280;23341;50.296;18.960;2023-03-01T12:54:47;47304.56;;;-144.43;35.15
37486;BME280;23341;50.296;18.960;2023-03-01T13:00:02;47280.59;;;-144.43;35.75
37486;BME280;23341;50.296;18.960;2023-03-01T13:05:24;47320.53;;;-144.43;34.89
37486;BME280;23341;50.296;18.960;2023-03-01T13:10:33;47280.59;;;-144.43;35.28
37486;BME280;23341;50.296;18.960;2023-03-01T13:15:39;47322.53;;;-144.43;34.33
37486;BME280;23341;50.296;18.960;2023-03-01T13:20:48;47332.53;;;-144.43;34.80
37486;BME280;23341;50.296;18.960;2023-03-01T13:26:11;47266.63;;;-144.43;35.19
37486;BME280;23341;50.296;18.960;2023-03-01T13:37:22;47356.50;;;-144.43;32.36
37486;BME280;23341;50.296;18.960;2023-03-01T13:42:37;47380.47;;;-144.43;31.69
37486;BME280;23341;50.296;18.960;2023-03-01T13:47:43;47470.38;;;-144.43;31.86
37486;BME280;23341;50.296;18.960;2023-03-01T13:52:53;47470.38;;;-144.43;31.41
37486;BME280;23341;50.296;18.960;2023-03-01T13:58:03;47432.41;;;-144.43;31.49
37486;BME280;23341;50.296;18.960;2023-03-01T14:03:13;47424.44;;;-144.43;30.47
37486;BME280;23341;50.296;18.960;2023-03-01T14:08:20;47436.41;;;-144.43;29.93
37486;BME280;23341;50.296;18.960;2023-03-01T14:13:38;47484.34;;;-144.43;28.68
37486;BME280;23341;50.296;18.960;2023-03-01T14:18:54;47516.31;;;-144.43;27.81
37486;BME280;23341;50.296;18.960;2023-03-01T14:24:04;47508.31;;;-144.43;26.59
37486;BME280;23341;50.296;18.960;2023-03-01T14:29:24;47454.38;;;-144.43;27.33
37486;BME280;23341;50.296;18.960;2023-03-01T14:34:29;47516.31;;;-144.43;26.52
37486;BME280;23341;50.296;18.960;2023-03-01T14:39:35;47494.34;;;-144.43;26.11
37486;BME280;23341;50.296;18.960;2023-03-01T14:44:41;47514.31;;;-144.43;27.55
37486;BME280;23341;50.296;18.960;2023-03-01T14:49:47;47500.34;;;-144.43;26.93
37486;BME280;23341;50.296;18.960;2023-03-01T14:54:54;47488.34;;;-144.43;28.21
37486;BME280;23341;50.296;18.960;2023-03-01T15:00:00;47544.28;;;-144.43;28.93
37486;BME280;23341;50.296;18.960;2023-03-01T15:05:09;47538.28;;;-144.43;29.46
37486;BME280;23341;50.296;18.960;2023-03-01T15:10:20;47558.28;;;-144.43;29.79
37486;BME280;23341;50.296;18.960;2023-03-01T15:15:33;47546.28;;;-144.43;31.26
37486;BME280;23341;50.296;18.960;2023-03-01T15:20:38;47496.34;;;-144.43;31.69
37486;BME280;23341;50.296;18.960;2023-03-01T15:25:44;47526.31;;;-144.43;32.20
37486;BME280;23341;50.296;18.960;2023-03-01T15:30:53;47544.28;;;-144.43;31.84
37486;BME280;23341;50.296;18.960;2023-03-01T15:35:59;47558.28;;;-144.43;32.28
37486;BME280;23341;50.296;18.960;2023-03-01T15:41:21;47564.25;;;-144.43;33.53
37486;BME280;23341;50.296;18.960;2023-03-01T15:46:28;47570.25;;;-144.43;34.05
37486;BME280;23341;50.296;18.960;2023-03-01T15:51:36;47558.28;;;-144.43;35.01
37486;BME280;23341;50.296;18.960;2023-03-01T15:56:42;47570.25;;;-144.43;36.25
37486;BME280;23341;50.296;18.960;2023-03-01T16:01:47;47550.28;;;-144.43;37.98
37486;BME280;23341;50.296;18.960;2023-03-01T16:06:53;47596.22;;;-144.43;38.23
37486;BME280;23341;50.296;18.960;2023-03-01T16:11:59;47584.25;;;-144.43;38.54
37486;BME280;23341;50.296;18.960;2023-03-01T16:17:04;47578.25;;;-144.43;39.91
37486;BME280;23341;50.296;18.960;2023-03-01T16:22:09;47576.25;;;-144.43;40.11
37486;BME280;23341;50.296;18.960;2023-03-01T16:27:15;47580.25;;;-144.43;41.20
37486;BME280;23341;50.296;18.960;2023-03-01T16:32:19;47550.28;;;-144.43;43.10
37486;BME280;23341;50.296;18.960;2023-03-01T16:37:24;47556.28;;;-144.43;44.94
37486;BME280;23341;50.296;18.960;2023-03-01T16:42:33;47552.28;;;-144.43;46.24
37486;BME280;23341;50.296;18.960;2023-03-01T16:47:42;47580.25;;;-144.43;47.00
37486;BME280;23341;50.296;18.960;2023-03-01T16:52:46;47544.28;;;-144.43;48.26
37486;BME280;23341;50.296;18.960;2023-03-01T16:57:52;47560.28;;;-144.43;47.27
37486;BME280;23341;50.296;18.960;2023-03-01T17:02:57;47632.19;;;-144.43;45.55
37486;BME280;23341;50.296;18.960;2023-03-01T17:08:01;47612.22;;;-144.43;45.39
37486;BME280;23341;50.296;18.960;2023-03-01T17:13:07;47588.22;;;-144.43;45.23
37486;BME280;23341;50.296;18.960;2023-03-01T17:18:13;47616.19;;;-144.43;45.04
37486;BME280;23341;50.296;18.960;2023-03-01T17:23:17;47612.22;;;-144.43;44.51
37486;BME280;23341;50.296;18.960;2023-03-01T17:28:24;47620.19;;;-144.43;46.21
37486;BME280;23341;50.296;18.960;2023-03-01T17:33:28;47632.19;;;-144.43;47.04
37486;BME280;23341;50.296;18.960;2023-03-01T17:38:33;47598.22;;;-144.43;48.41
37486;BME280;23341;50.296;18.960;2023-03-01T17:43:40;47608.22;;;-144.43;48.79
37486;BME280;23341;50.296;18.960;2023-03-01T17:48:45;47616.19;;;-144.43;48.64
37486;BME280;23341;50.296;18.960;2023-03-01T17:53:49;47624.19;;;-144.43;48.87
37486;BME280;23341;50.296;18.960;2023-03-01T17:58:55;47602.22;;;-144.43;50.52
37486;BME280;23341;50.296;18.960;2023-03-01T18:03:59;47596.22;;;-144.43;52.21
37486;BME280;23341;50.296;18.960;2023-03-01T18:09:03;47616.19;;;-144.43;51.35
37486;BME280;23341;50.296;18.960;2023-03-01T18:14:09;47594.22;;;-144.43;51.55
37486;BME280;23341;50.296;18.960;2023-03-01T18:19:13;47592.22;;;-144.43;52.71
37486;BME280;23341;50.296;18.960;2023-03-01T18:24:18;47604.22;;;-144.43;52.21
37486;BME280;23341;50.296;18.960;2023-03-01T18:29:24;47596.22;;;-144.43;51.81
37486;BME280;23341;50.296;18.960;2023-03-01T18:34:29;47642.19;;;-144.43;51.35
37486;BME280;23341;50.296;18.960;2023-03-01T18:39:33;47658.16;;;-144.43;51.96
37486;BME280;23341;50.296;18.960;2023-03-01T18:44:38;47624.19;;;-144.43;52.85
37486;BME280;23341;50.296;18.960;2023-03-01T18:49:43;47632.19;;;-144.43;52.40
37486;BME280;23341;50.296;18.960;2023-03-01T18:54:47;47634.19;;;-144.43;52.88
37486;BME280;23341;50.296;18.960;2023-03-01T18:59:53;47600.22;;;-144.43;53.13
37486;BME280;23341;50.296;18.960;2023-03-01T19:04:58;47612.22;;;-144.43;54.06
37486;BME280;23341;50.296;18.960;2023-03-01T19:10:02;47598.22;;;-144.43;57.31
37486;BME280;23341;50.296;18.960;2023-03-01T19:15:09;47602.22;;;-144.43;57.73
37486;BME280;23341;50.296;18.960;2023-03-01T19:20:13;47574.25;;;-144.43;58.54
37486;BME280;23341;50.296;18.960;2023-03-01T19:25:18;47592.22;;;-144.43;59.36
37486;BME280;23341;50.296;18.960;2023-03-01T19:30:23;47574.25;;;-144.43;60.02
37486;BME280;23341;50.296;18.960;2023-03-01T19:35:28;47580.25;;;-144.43;59.75
37486;BME280;23341;50.296;18.960;2023-03-01T19:40:34;47568.25;;;-144.43;59.81
37486;BME280;23341;50.296;18.960;2023-03-01T19:45:40;47590.22;;;-144.43;60.45
37486;BME280;23341;50.296;18.960;2023-03-01T19:50:45;47592.22;;;-144.43;60.65
37486;BME280;23341;50.296;18.960;2023-03-01T19:55:49;47594.22;;;-144.43;59.79
37486;BME280;23341;50.296;18.960;2023-03-01T20:00:57;47578.25;;;-144.43;60.75
37486;BME280;23341;50.296;18.960;2023-03-01T20:06:07;47600.22;;;-144.43;60.58
37486;BME280;23341;50.296;18.960;2023-03-01T20:11:14;47584.25;;;-144.43;62.32
37486;BME280;23341;50.296;18.960;2023-03-01T20:16:20;47568.25;;;-144.43;62.39
37486;BME280;23341;50.296;18.960;2023-03-01T20:21:26;47560.28;;;-144.43;63.73
37486;BME280;23341;50.296;18.960;2023-03-01T20:26:31;47598.22;;;-144.43;63.92
37486;BME280;23341;50.296;18.960;2023-03-01T20:31:37;47558.28;;;-144.43;64.99
37486;BME280;23341;50.296;18.960;2023-03-01T20:36:43;47520.31;;;-144.43;66.32
37486;BME280;23341;50.296;18.960;2023-03-01T20:41:47;47554.28;;;-144.43;65.56
37486;BME280;23341;50.296;18.960;2023-03-01T20:46:53;47562.25;;;-144.43;64.90
37486;BME280;23341;50.296;18.960;2023-03-01T20:51:58;47566.25;;;-144.43;64.06
37486;BME280;23341;50.296;18.960;2023-03-01T20:57:02;47556.28;;;-144.43;64.14
37486;BME280;23341;50.296;18.960;2023-03-01T21:02:09;47568.25;;;-144.43;64.71
37486;BME280;23341;50.296;18.960;2023-03-01T21:07:13;47530.31;;;-144.43;65.19
37486;BME280;23341;50.296;18.960;2023-03-01T21:12:17;47544.28;;;-144.43;65.71
37486;BME280;23341;50.296;18.960;2023-03-01T21:17:23;47536.28;;;-144.43;65.78
37486;BME280;23341;50.296;18.960;2023-03-01T21:22:27;47536.28;;;-144.43;65.97
37486;BME280;23341;50.296;18.960;2023-03-01T21:27:37;47526.31;;;-144.43;66.61
37486;BME280;23341;50.296;18.960;2023-03-01T21:32:43;47544.28;;;-144.43;67.20
37486;BME280;23341;50.296;18.960;2023-03-01T21:37:48;47564.25;;;-144.43;66.58
37486;BME280;23341;50.296;18.960;2023-03-01T21:42:52;47510.31;;;-144.43;67.04
37486;BME280;23341;50.296;18.960;2023-03-01T21:47:58;47544.28;;;-144.43;67.30
37486;BME280;23341;50.296;18.960;2023-03-01T21:53:02;47524.31;;;-144.43;68.60
37486;BME280;23341;50.296;18.960;2023-03-01T21:58:07;47508.31;;;-144.43;68.80
37486;BME280;23341;50.296;18.960;2023-03-01T22:03:13;47512.31;;;-144.43;68.49
37486;BME280;23341;50.296;18.960;2023-03-01T22:08:17;47514.31;;;-144.43;68.72
37486;BME280;23341;50.296;18.960;2023-03-01T22:13:22;47512.31;;;-144.43;68.62
37486;BME280;23341;50.296;18.960;2023-03-01T22:18:27;47484.34;;;-144.43;68.47
37486;BME280;23341;50.296;18.960;2023-03-01T22:23:32;47512.31;;;-144.43;69.20
37486;BME280;23341;50.296;18.960;2023-03-01T22:28:37;47480.34;;;-144.43;69.19
37486;BME280;23341;50.296;18.960;2023-03-01T22:33:43;47516.31;;;-144.43;69.01
37486;BME280;23341;50.296;18.960;2023-03-01T22:38:47;47504.34;;;-144.43;69.75
37486;BME280;23341;50.296;18.960;2023-03-01T22:43:54;47512.31;;;-144.43;69.05
37486;BME280;23341;50.296;18.960;2023-03-01T22:49:00;47530.31;;;-144.43;69.19
37486;BME280;23341;50.296;18.960;2023-03-01T22:54:05;47520.31;;;-144.43;69.08
37486;BME280;23341;50.296;18.960;2023-03-01T22:59:11;47486.34;;;-144.43;68.97
37486;BME280;23341;50.296;18.960;2023-03-01T23:04:19;47500.34;;;-144.43;68.85
37486;BME280;23341;50.296;18.960;2023-03-01T23:09:25;47520.31;;;-144.43;68.37
37486;BME280;23341;50.296;18.960;2023-03-01T23:14:32;47536.28;;;-144.43;68.64
37486;BME280;23341;50.296;18.960;2023-03-01T23:19:37;47560.28;;;-144.43;69.28
37486;BME280;23341;50.296;18.960;2023-03-01T23:24:42;47500.34;;;-144.43;70.34
37486;BME280;23341;50.296;18.960;2023-03-01T23:29:46;47518.31;;;-144.43;71.28
37486;BME280;23341;50.296;18.960;2023-03-01T23:34:52;47528.31;;;-144.43;71.93
37486;BME280;23341;50.296;18.960;2023-03-01T23:39:56;47442.41;;;-144.43;72.23
37486;BME280;23341;50.296;18.960;2023-03-01T23:45:01;47456.38;;;-144.43;72.82
37486;BME280;23341;50.296;18.960;2023-03-01T23:50:08;47426.41;;;-144.43;72.89
37486;BME280;23341;50.296;18.960;2023-03-01T23:55:13;47430.41;;;-144.43;73.19
